sensor_id;sensor_type;location;lat;lon;timestamp;temperature;humidity
53045;DHT22;38930;52.766;6.884;2024-03-07T00:00:21;5.90;99.90
53045;DHT22;38930;52.766;6.884;2024-03-07T00:02:49;6.70;99.90
53045;DHT22;38930;52.766;6.884;2024-03-07T00:05:16;5.70;99.90
53045;DHT22;38930;52.766;6.884;2024-03-07T00:07:42;6.00;99.90
53045;DHT22;38930;52.766;6.884;2024-03-07T00:10:08;5.70;99.90
53045;DHT22;38930;52.766;6.884;2024-03-07T00:12:35;5.70;99.90
53045;DHT22;38930;52.766;6.884;2024-03-07T00:15:02;5.60;99.90
53045;DHT22;38930;52.766;6.884;2024-03-07T00:17:28;5.60;99.90
53045;DHT22;38930;52.766;6.884;2024-03-07T00:19:54;5.60;99.90
53045;DHT22;38930;52.766;6.884;2024-03-07T00:22:20;5.60;99.90
53045;DHT22;38930;52.766;6.884;2024-03-07T00:24:45;5.50;99.90
53045;DHT22;38930;52.766;6.884;2024-03-07T00:27:13;5.50;99.90
53045;DHT22;38930;52.766;6.884;2024-03-07T00:29:40;5.50;99.90
53045;DHT22;38930;52.766;6.884;2024-03-07T00:32:06;6.50;99.90
53045;DHT22;38930;52.766;6.884;2024-03-07T00:34:33;5.40;99.90
53045;DHT22;38930;52.766;6.884;2024-03-07T00:36:59;5.40;99.90
53045;DHT22;38930;52.766;6.884;2024-03-07T00:39:25;5.30;99.90
53045;DHT22;38930;52.766;6.884;2024-03-07T00:41:51;5.40;99.90
53045;DHT22;38930;52.766;6.884;2024-03-07T00:44:17;5.20;99.90
53045;DHT22;38930;52.766;6.884;2024-03-07T00:46:42;5.20;99.90
53045;DHT22;38930;52.766;6.884;2024-03-07T00:49:08;5.00;99.90
53045;DHT22;38930;52.766;6.884;2024-03-07T00:51:34;5.10;99.90
53045;DHT22;38930;52.766;6.884;2024-03-07T00:53:59;5.10;99.90
53045;DHT22;38930;52.766;6.884;2024-03-07T00:56:25;5.00;99.90
53045;DHT22;38930;52.766;6.884;2024-03-07T00:58:51;5.00;99.90
53045;DHT22;38930;52.766;6.884;2024-03-07T01:01:17;5.00;99.90
53045;DHT22;38930;52.766;6.884;2024-03-07T01:03:44;4.90;99.90
53045;DHT22;38930;52.766;6.884;2024-03-07T01:06:10;4.90;99.90
53045;DHT22;38930;52.766;6.884;2024-03-07T01:08:36;4.80;99.90
53045;DHT22;38930;52.766;6.884;2024-03-07T01:11:03;4.80;99.90
53045;DHT22;38930;52.766;6.884;2024-03-07T01:13:40;4.80;99.90
53045;DHT22;38930;52.766;6.884;2024-03-07T01:16:06;4.80;99.90
53045;DHT22;38930;52.766;6.884;2024-03-07T01:18:32;4.70;99.90
53045;DHT22;38930;52.766;6.884;2024-03-07T01:21:01;4.70;99.90
53045;DHT22;38930;52.766;6.884;2024-03-07T01:23:27;4.60;99.90
53045;DHT22;38930;52.766;6.884;2024-03-07T01:25:56;4.60;99.90
53045;DHT22;38930;52.766;6.884;2024-03-07T01:28:23;4.60;99.90
53045;DHT22;38930;52.766;6.884;2024-03-07T01:30:51;4.60;99.90
53045;DHT22;38930;52.766;6.884;2024-03-07T01:33:18;4.50;99.90
53045;DHT22;38930;52.766;6.884;2024-03-07T01:35:44;4.50;99.90
53045;DHT22;38930;52.766;6.884;2024-03-07T01:38:11;4.50;99.90
53045;DHT22;38930;52.766;6.884;2024-03-07T01:40:36;4.40;99.90
53045;DHT22;38930;52.766;6.884;2024-03-07T01:43:03;4.40;99.90
53045;DHT22;38930;52.766;6.884;2024-03-07T01:45:28;4.40;99.90
53045;DHT22;38930;52.766;6.884;2024-03-07T01:47:54;4.40;99.90
53045;DHT22;38930;52.766;6.884;2024-03-07T01:50:23;4.30;99.90
53045;DHT22;38930;52.766;6.884;2024-03-07T01:52:49;4.30;99.90
53045;DHT22;38930;52.766;6.884;2024-03-07T01:55:21;4.20;99.90
53045;DHT22;38930;52.766;6.884;2024-03-07T01:57:48;4.20;99.90
53045;DHT22;38930;52.766;6.884;2024-03-07T02:00:13;4.20;99.90
53045;DHT22;38930;52.766;6.884;2024-03-07T02:02:39;4.20;99.90
53045;DHT22;38930;52.766;6.884;2024-03-07T02:05:05;4.10;99.90
53045;DHT22;38930;52.766;6.884;2024-03-07T02:07:32;4.10;99.90
53045;DHT22;38930;52.766;6.884;2024-03-07T02:10:04;4.00;99.90
53045;DHT22;38930;52.766;6.884;2024-03-07T02:12:32;4.00;99.90
53045;DHT22;38930;52.766;6.884;2024-03-07T02:14:58;3.90;99.90
53045;DHT22;38930;52.766;6.884;2024-03-07T02:17:28;3.90;99.90
53045;DHT22;38930;52.766;6.884;2024-03-07T02:19:53;3.90;99.90
53045;DHT22;38930;52.766;6.884;2024-03-07T02:22:19;3.90;99.90
53045;DHT22;38930;52.766;6.884;2024-03-07T02:24:45;3.90;99.90
53045;DHT22;38930;52.766;6.884;2024-03-07T02:27:12;4.90;99.90
53045;DHT22;38930;52.766;6.884;2024-03-07T02:29:37;3.80;99.90
53045;DHT22;38930;52.766;6.884;2024-03-07T02:32:03;3.80;99.90
53045;DHT22;38930;52.766;6.884;2024-03-07T02:34:29;3.70;99.90
53045;DHT22;38930;52.766;6.884;2024-03-07T02:36:55;3.60;99.90
53045;DHT22;38930;52.766;6.884;2024-03-07T02:39:21;3.30;99.90
53045;DHT22;38930;52.766;6.884;2024-03-07T02:41:47;3.70;99.90
53045;DHT22;38930;52.766;6.884;2024-03-07T02:44:16;3.60;99.90
53045;DHT22;38930;52.766;6.884;2024-03-07T02:46:42;3.50;99.90
53045;DHT22;38930;52.766;6.884;2024-03-07T02:49:08;3.50;99.90
53045;DHT22;38930;52.766;6.884;2024-03-07T02:51:34;4.60;99.90
53045;DHT22;38930;52.766;6.884;2024-03-07T02:54:01;3.20;99.90
53045;DHT22;38930;52.766;6.884;2024-03-07T02:56:26;3.40;99.90
53045;DHT22;38930;52.766;6.884;2024-03-07T02:58:52;3.40;99.90
53045;DHT22;38930;52.766;6.884;2024-03-07T03:01:17;3.40;99.90
53045;DHT22;38930;52.766;6.884;2024-03-07T03:03:43;3.40;99.90
53045;DHT22;38930;52.766;6.884;2024-03-07T03:06:10;4.70;99.90
53045;DHT22;38930;52.766;6.884;2024-03-07T03:08:36;3.10;99.90
53045;DHT22;38930;52.766;6.884;2024-03-07T03:11:02;3.30;99.90
53045;DHT22;38930;52.766;6.884;2024-03-07T03:13:28;3.20;99.90
53045;DHT22;38930;52.766;6.884;2024-03-07T03:15:54;3.20;99.90
53045;DHT22;38930;52.766;6.884;2024-03-07T03:18:24;2.90;99.90
53045;DHT22;38930;52.766;6.884;2024-03-07T03:20:50;3.10;99.90
53045;DHT22;38930;52.766;6.884;2024-03-07T03:23:18;3.00;99.90
53045;DHT22;38930;52.766;6.884;2024-03-07T03:25:44;3.00;99.90
53045;DHT22;38930;52.766;6.884;2024-03-07T03:28:10;3.00;99.90
53045;DHT22;38930;52.766;6.884;2024-03-07T03:30:37;2.90;99.90
53045;DHT22;38930;52.766;6.884;2024-03-07T03:33:03;2.90;99.90
53045;DHT22;38930;52.766;6.884;2024-03-07T03:35:29;2.90;99.90
53045;DHT22;38930;52.766;6.884;2024-03-07T03:37:54;2.60;99.90
53045;DHT22;38930;52.766;6.884;2024-03-07T03:40:20;2.70;99.90
53045;DHT22;38930;52.766;6.884;2024-03-07T03:42:45;2.60;99.90
53045;DHT22;38930;52.766;6.884;2024-03-07T03:45:11;2.80;99.90
53045;DHT22;38930;52.766;6.884;2024-03-07T03:47:41;2.80;99.90
53045;DHT22;38930;52.766;6.884;2024-03-07T03:50:09;2.90;99.90
53045;DHT22;38930;52.766;6.884;2024-03-07T03:52:35;2.70;99.90
53045;DHT22;38930;52.766;6.884;2024-03-07T03:55:05;4.40;99.90
53045;DHT22;38930;52.766;6.884;2024-03-07T03:57:41;2.50;99.90
53045;DHT22;38930;52.766;6.884;2024-03-07T04:00:08;2.80;99.90
53045;DHT22;38930;52.766;6.884;2024-03-07T04:02:44;2.80;99.90
53045;DHT22;38930;52.766;6.884;2024-03-07T04:05:13;2.50;99.90
53045;DHT22;38930;52.766;6.884;2024-03-07T04:07:40;3.00;99.90
53045;DHT22;38930;52.766;6.884;2024-03-07T04:10:07;2.80;99.90
53045;DHT22;38930;52.766;6.884;2024-03-07T04:12:34;2.80;99.90
53045;DHT22;38930;52.766;6.884;2024-03-07T04:15:00;2.50;99.90
53045;DHT22;38930;52.766;6.884;2024-03-07T04:17:26;2.60;99.90
53045;DHT22;38930;52.766;6.884;2024-03-07T04:19:52;2.50;99.90
53045;DHT22;38930;52.766;6.884;2024-03-07T04:22:17;2.60;99.90
53045;DHT22;38930;52.766;6.884;2024-03-07T04:24:45;2.50;99.90
53045;DHT22;38930;52.766;6.884;2024-03-07T04:27:11;2.50;99.90
53045;DHT22;38930;52.766;6.884;2024-03-07T04:29:36;2.70;99.90
53045;DHT22;38930;52.766;6.884;2024-03-07T04:32:03;2.60;99.90
53045;DHT22;38930;52.766;6.884;2024-03-07T04:34:29;2.50;99.90
53045;DHT22;38930;52.766;6.884;2024-03-07T04:36:59;1.90;99.90
53045;DHT22;38930;52.766;6.884;2024-03-07T04:39:27;2.50;99.90
53045;DHT22;38930;52.766;6.884;2024-03-07T04:42:02;2.40;99.90
53045;DHT22;38930;52.766;6.884;2024-03-07T04:44:28;2.30;99.90
53045;DHT22;38930;52.766;6.884;2024-03-07T04:46:54;2.50;99.90
53045;DHT22;38930;52.766;6.884;2024-03-07T04:49:23;2.50;99.90
53045;DHT22;38930;52.766;6.884;2024-03-07T04:51:53;2.40;99.90
53045;DHT22;38930;52.766;6.884;2024-03-07T04:54:19;2.20;99.90
53045;DHT22;38930;52.766;6.884;2024-03-07T04:56:45;2.40;99.90
53045;DHT22;38930;52.766;6.884;2024-03-07T04:59:11;2.10;99.90
53045;DHT22;38930;52.766;6.884;2024-03-07T05:01:38;2.20;99.90
53045;DHT22;38930;52.766;6.884;2024-03-07T05:04:04;2.10;99.90
53045;DHT22;38930;52.766;6.884;2024-03-07T05:06:29;2.20;99.90
53045;DHT22;38930;52.766;6.884;2024-03-07T05:09:02;2.10;99.90
53045;DHT22;38930;52.766;6.884;2024-03-07T05:11:29;2.10;99.90
53045;DHT22;38930;52.766;6.884;2024-03-07T05:13:56;2.00;99.90
53045;DHT22;38930;52.766;6.884;2024-03-07T05:16:24;2.20;99.90
53045;DHT22;38930;52.766;6.884;2024-03-07T05:18:50;1.90;99.90
53045;DHT22;38930;52.766;6.884;2024-03-07T05:21:16;2.00;99.90
53045;DHT22;38930;52.766;6.884;2024-03-07T05:24:03;2.00;99.90
53045;DHT22;38930;52.766;6.884;2024-03-07T05:26:29;2.00;99.90
53045;DHT22;38930;52.766;6.884;2024-03-07T05:29:01;2.00;99.90
53045;DHT22;38930;52.766;6.884;2024-03-07T05:31:31;2.00;99.90
53045;DHT22;38930;52.766;6.884;2024-03-07T05:34:02;2.00;99.90
53045;DHT22;38930;52.766;6.884;2024-03-07T05:36:34;1.90;99.90
53045;DHT22;38930;52.766;6.884;2024-03-07T05:39:01;1.90;99.90
53045;DHT22;38930;52.766;6.884;2024-03-07T05:41:28;1.90;99.90
53045;DHT22;38930;52.766;6.884;2024-03-07T05:43:55;1.70;99.90
53045;DHT22;38930;52.766;6.884;2024-03-07T05:46:22;2.10;99.90
53045;DHT22;38930;52.766;6.884;2024-03-07T05:48:48;1.60;99.90
53045;DHT22;38930;52.766;6.884;2024-03-07T05:51:18;1.60;99.90
53045;DHT22;38930;52.766;6.884;2024-03-07T05:53:43;1.70;99.90
53045;DHT22;38930;52.766;6.884;2024-03-07T05:56:09;1.70;99.90
53045;DHT22;38930;52.766;6.884;2024-03-07T05:58:34;1.60;99.90
53045;DHT22;38930;52.766;6.884;2024-03-07T06:01:00;1.70;99.90
53045;DHT22;38930;52.766;6.884;2024-03-07T06:03:26;1.60;99.90
53045;DHT22;38930;52.766;6.884;2024-03-07T06:05:51;1.70;99.90
53045;DHT22;38930;52.766;6.884;2024-03-07T06:08:19;1.70;99.90
53045;DHT22;38930;52.766;6.884;2024-03-07T06:10:46;1.70;99.90
53045;DHT22;38930;52.766;6.884;2024-03-07T06:13:13;1.60;99.90
53045;DHT22;38930;52.766;6.884;2024-03-07T06:15:39;1.90;99.90
53045;DHT22;38930;52.766;6.884;2024-03-07T06:18:06;1.40;99.90
53045;DHT22;38930;52.766;6.884;2024-03-07T06:20:33;2.00;99.90
53045;DHT22;38930;52.766;6.884;2024-03-07T06:23:00;1.50;99.90
53045;DHT22;38930;52.766;6.884;2024-03-07T06:25:33;1.50;99.90
53045;DHT22;38930;52.766;6.884;2024-03-07T06:28:03;1.60;99.90
53045;DHT22;38930;52.766;6.884;2024-03-07T06:30:44;1.70;99.90
53045;DHT22;38930;52.766;6.884;2024-03-07T06:33:11;1.50;99.90
53045;DHT22;38930;52.766;6.884;2024-03-07T06:35:37;1.70;99.90
53045;DHT22;38930;52.766;6.884;2024-03-07T06:38:07;1.60;99.90
53045;DHT22;38930;52.766;6.884;2024-03-07T06:40:37;1.60;99.90
53045;DHT22;38930;52.766;6.884;2024-03-07T06:43:03;1.60;99.90
53045;DHT22;38930;52.766;6.884;2024-03-07T06:45:33;1.60;99.90
53045;DHT22;38930;52.766;6.884;2024-03-07T06:47:59;1.60;99.90
53045;DHT22;38930;52.766;6.884;2024-03-07T06:50:25;1.20;99.90
53045;DHT22;38930;52.766;6.884;2024-03-07T06:52:51;1.70;99.90
53045;DHT22;38930;52.766;6.884;2024-03-07T06:55:18;1.50;99.90
53045;DHT22;38930;52.766;6.884;2024-03-07T06:57:44;1.70;99.90
53045;DHT22;38930;52.766;6.884;2024-03-07T07:00:11;1.70;99.90
53045;DHT22;38930;52.766;6.884;2024-03-07T07:02:38;1.60;99.90
53045;DHT22;38930;52.766;6.884;2024-03-07T07:05:05;1.60;99.90
53045;DHT22;38930;52.766;6.884;2024-03-07T07:07:39;1.70;99.90
53045;DHT22;38930;52.766;6.884;2024-03-07T07:10:05;1.70;99.90
53045;DHT22;38930;52.766;6.884;2024-03-07T07:12:35;1.80;99.90
53045;DHT22;38930;52.766;6.884;2024-03-07T07:15:02;0.60;99.90
53045;DHT22;38930;52.766;6.884;2024-03-07T07:17:29;1.80;99.90
53045;DHT22;38930;52.766;6.884;2024-03-07T07:19:56;1.90;99.90
53045;DHT22;38930;52.766;6.884;2024-03-07T07:22:22;0.90;99.90
53045;DHT22;38930;52.766;6.884;2024-03-07T07:24:47;2.20;99.90
53045;DHT22;38930;52.766;6.884;2024-03-07T07:27:13;1.90;99.90
53045;DHT22;38930;52.766;6.884;2024-03-07T07:29:38;2.00;99.90
53045;DHT22;38930;52.766;6.884;2024-03-07T07:32:05;0.90;99.90
53045;DHT22;38930;52.766;6.884;2024-03-07T07:34:30;2.20;99.90
53045;DHT22;38930;52.766;6.884;2024-03-07T07:36:56;0.90;99.90
53045;DHT22;38930;52.766;6.884;2024-03-07T07:39:22;2.30;99.90
53045;DHT22;38930;52.766;6.884;2024-03-07T07:41:48;2.20;99.90
53045;DHT22;38930;52.766;6.884;2024-03-07T07:44:13;2.20;99.90
53045;DHT22;38930;52.766;6.884;2024-03-07T07:46:39;1.10;99.90
53045;DHT22;38930;52.766;6.884;2024-03-07T07:49:06;2.60;99.90
53045;DHT22;38930;52.766;6.884;2024-03-07T07:51:31;2.50;99.90
53045;DHT22;38930;52.766;6.884;2024-03-07T07:53:57;2.50;99.90
53045;DHT22;38930;52.766;6.884;2024-03-07T07:56:23;2.70;99.90
53045;DHT22;38930;52.766;6.884;2024-03-07T07:58:50;2.60;99.90
53045;DHT22;38930;52.766;6.884;2024-03-07T08:01:16;2.00;99.90
53045;DHT22;38930;52.766;6.884;2024-03-07T08:03:44;2.70;99.90
53045;DHT22;38930;52.766;6.884;2024-03-07T08:06:10;2.60;99.90
53045;DHT22;38930;52.766;6.884;2024-03-07T08:08:35;1.00;99.90
53045;DHT22;38930;52.766;6.884;2024-03-07T08:11:01;2.40;99.90
53045;DHT22;38930;52.766;6.884;2024-03-07T08:13:27;2.60;99.90
53045;DHT22;38930;52.766;6.884;2024-03-07T08:15:53;2.50;99.90
53045;DHT22;38930;52.766;6.884;2024-03-07T08:18:21;1.80;99.90
53045;DHT22;38930;52.766;6.884;2024-03-07T08:20:47;0.70;99.90
53045;DHT22;38930;52.766;6.884;2024-03-07T08:23:12;2.30;99.90
53045;DHT22;38930;52.766;6.884;2024-03-07T08:25:39;1.50;99.90
53045;DHT22;38930;52.766;6.884;2024-03-07T08:28:06;2.20;99.90
53045;DHT22;38930;52.766;6.884;2024-03-07T08:30:31;2.20;99.90
53045;DHT22;38930;52.766;6.884;2024-03-07T08:32:57;3.20;99.90
53045;DHT22;38930;52.766;6.884;2024-03-07T08:35:24;2.20;99.90
53045;DHT22;38930;52.766;6.884;2024-03-07T08:37:53;2.40;99.90
53045;DHT22;38930;52.766;6.884;2024-03-07T08:40:20;2.10;99.90
53045;DHT22;38930;52.766;6.884;2024-03-07T08:42:53;2.20;99.90
53045;DHT22;38930;52.766;6.884;2024-03-07T08:45:19;2.10;99.90
53045;DHT22;38930;52.766;6.884;2024-03-07T08:47:47;0.80;99.90
53045;DHT22;38930;52.766;6.884;2024-03-07T08:50:13;2.30;99.90
53045;DHT22;38930;52.766;6.884;2024-03-07T08:52:40;2.20;99.90
53045;DHT22;38930;52.766;6.884;2024-03-07T08:55:07;3.00;99.90
53045;DHT22;38930;52.766;6.884;2024-03-07T08:57:36;2.20;99.90
53045;DHT22;38930;52.766;6.884;2024-03-07T09:00:05;0.70;99.90
53045;DHT22;38930;52.766;6.884;2024-03-07T09:02:35;2.20;99.90
53045;DHT22;38930;52.766;6.884;2024-03-07T09:05:04;2.00;99.90
53045;DHT22;38930;52.766;6.884;2024-03-07T09:07:30;2.10;99.90
53045;DHT22;38930;52.766;6.884;2024-03-07T09:09:56;2.10;99.90
53045;DHT22;38930;52.766;6.884;2024-03-07T09:12:22;2.10;99.90
53045;DHT22;38930;52.766;6.884;2024-03-07T09:14:51;2.30;99.90
53045;DHT22;38930;52.766;6.884;2024-03-07T09:17:17;2.20;99.90
53045;DHT22;38930;52.766;6.884;2024-03-07T09:19:43;1.40;99.90
53045;DHT22;38930;52.766;6.884;2024-03-07T09:22:08;2.50;99.90
53045;DHT22;38930;52.766;6.884;2024-03-07T09:24:34;2.50;99.90
53045;DHT22;38930;52.766;6.884;2024-03-07T09:27:00;2.70;99.90
53045;DHT22;38930;52.766;6.884;2024-03-07T09:29:26;2.50;99.90
53045;DHT22;38930;52.766;6.884;2024-03-07T09:31:53;2.80;99.90
53045;DHT22;38930;52.766;6.884;2024-03-07T09:34:19;2.80;99.90
53045;DHT22;38930;52.766;6.884;2024-03-07T09:36:46;3.00;99.90
53045;DHT22;38930;52.766;6.884;2024-03-07T09:39:12;3.00;99.90
53045;DHT22;38930;52.766;6.884;2024-03-07T09:41:38;3.20;99.90
53045;DHT22;38930;52.766;6.884;2024-03-07T09:44:05;3.10;99.90
53045;DHT22;38930;52.766;6.884;2024-03-07T09:46:31;3.20;99.90
53045;DHT22;38930;52.766;6.884;2024-03-07T09:48:58;3.10;99.90
53045;DHT22;38930;52.766;6.884;2024-03-07T09:51:24;3.40;99.90
53045;DHT22;38930;52.766;6.884;2024-03-07T09:53:51;3.60;99.90
53045;DHT22;38930;52.766;6.884;2024-03-07T09:56:21;3.50;99.90
53045;DHT22;38930;52.766;6.884;2024-03-07T09:58:50;3.70;99.90
53045;DHT22;38930;52.766;6.884;2024-03-07T10:01:25;3.60;99.90
53045;DHT22;38930;52.766;6.884;2024-03-07T10:03:58;3.70;99.90
53045;DHT22;38930;52.766;6.884;2024-03-07T10:06:24;4.00;99.90
53045;DHT22;38930;52.766;6.884;2024-03-07T10:08:50;4.30;99.90
53045;DHT22;38930;52.766;6.884;2024-03-07T10:11:15;4.20;99.90
53045;DHT22;38930;52.766;6.884;2024-03-07T10:13:41;4.40;99.90
53045;DHT22;38930;52.766;6.884;2024-03-07T10:16:07;4.50;99.90
53045;DHT22;38930;52.766;6.884;2024-03-07T10:18:41;4.70;99.90
53045;DHT22;38930;52.766;6.884;2024-03-07T10:21:06;4.60;99.90
53045;DHT22;38930;52.766;6.884;2024-03-07T10:23:32;4.80;99.90
53045;DHT22;38930;52.766;6.884;2024-03-07T10:26:00;3.40;99.90
53045;DHT22;38930;52.766;6.884;2024-03-07T10:28:27;4.80;99.90
53045;DHT22;38930;52.766;6.884;2024-03-07T10:30:53;4.90;99.90
53045;DHT22;38930;52.766;6.884;2024-03-07T10:33:19;4.90;99.90
53045;DHT22;38930;52.766;6.884;2024-03-07T10:35:49;5.00;99.90
53045;DHT22;38930;52.766;6.884;2024-03-07T10:38:15;5.00;99.90
53045;DHT22;38930;52.766;6.884;2024-03-07T10:40:46;5.10;99.90
53045;DHT22;38930;52.766;6.884;2024-03-07T10:43:12;5.00;99.90
53045;DHT22;38930;52.766;6.884;2024-03-07T10:45:47;5.20;99.90
53045;DHT22;38930;52.766;6.884;2024-03-07T10:48:17;5.20;99.90
53045;DHT22;38930;52.766;6.884;2024-03-07T10:51:06;5.30;99.90
53045;DHT22;38930;52.766;6.884;2024-03-07T10:53:44;5.70;99.90
53045;DHT22;38930;52.766;6.884;2024-03-07T10:59:16;5.40;99.90
53045;DHT22;38930;52.766;6.884;2024-03-07T11:04:17;5.40;99.90
53045;DHT22;38930;52.766;6.884;2024-03-07T11:06:43;5.70;99.90
53045;DHT22;38930;52.766;6.884;2024-03-07T11:09:10;6.80;99.90
53045;DHT22;38930;52.766;6.884;2024-03-07T11:11:40;7.00;99.90
53045;DHT22;38930;52.766;6.884;2024-03-07T11:14:10;6.30;99.90
53045;DHT22;38930;52.766;6.884;2024-03-07T11:16:38;5.80;99.90
53045;DHT22;38930;52.766;6.884;2024-03-07T11:19:26;5.90;99.90
53045;DHT22;38930;52.766;6.884;2024-03-07T11:22:02;6.00;99.90
53045;DHT22;38930;52.766;6.884;2024-03-07T11:24:39;7.30;99.90
53045;DHT22;38930;52.766;6.884;2024-03-07T11:27:10;6.20;99.90
53045;DHT22;38930;52.766;6.884;2024-03-07T11:29:46;6.80;99.90
53045;DHT22;38930;52.766;6.884;2024-03-07T11:32:13;6.30;99.90
53045;DHT22;38930;52.766;6.884;2024-03-07T11:34:43;6.70;99.90
53045;DHT22;38930;52.766;6.884;2024-03-07T11:37:20;6.70;99.90
53045;DHT22;38930;52.766;6.884;2024-03-07T11:40:02;6.70;99.90
53045;DHT22;38930;52.766;6.884;2024-03-07T11:42:33;6.80;99.90
53045;DHT22;38930;52.766;6.884;2024-03-07T11:45:02;6.40;99.90
53045;DHT22;38930;52.766;6.884;2024-03-07T11:47:38;6.60;99.90
53045;DHT22;38930;52.766;6.884;2024-03-07T11:50:05;6.60;99.90
53045;DHT22;38930;52.766;6.884;2024-03-07T11:52:37;6.50;99.90
53045;DHT22;38930;52.766;6.884;2024-03-07T11:55:08;4.90;99.90
53045;DHT22;38930;52.766;6.884;2024-03-07T11:57:33;6.30;99.90
53045;DHT22;38930;52.766;6.884;2024-03-07T12:00:00;6.30;99.90
53045;DHT22;38930;52.766;6.884;2024-03-07T12:02:27;6.20;99.90
53045;DHT22;38930;52.766;6.884;2024-03-07T12:04:54;6.20;99.90
53045;DHT22;38930;52.766;6.884;2024-03-07T12:07:20;6.60;99.90
53045;DHT22;38930;52.766;6.884;2024-03-07T12:09:49;6.00;99.90
53045;DHT22;38930;52.766;6.884;2024-03-07T12:12:21;6.10;99.90
53045;DHT22;38930;52.766;6.884;2024-03-07T12:14:48;5.90;99.90
53045;DHT22;38930;52.766;6.884;2024-03-07T12:17:16;5.90;99.90
53045;DHT22;38930;52.766;6.884;2024-03-07T12:19:43;5.90;99.90
53045;DHT22;38930;52.766;6.884;2024-03-07T12:22:10;5.90;99.90
53045;DHT22;38930;52.766;6.884;2024-03-07T12:24:39;5.90;99.90
53045;DHT22;38930;52.766;6.884;2024-03-07T12:27:09;4.90;99.90
53045;DHT22;38930;52.766;6.884;2024-03-07T12:29:39;6.60;99.90
53045;DHT22;38930;52.766;6.884;2024-03-07T12:32:06;6.60;99.90
53045;DHT22;38930;52.766;6.884;2024-03-07T12:34:36;6.90;99.90
53045;DHT22;38930;52.766;6.884;2024-03-07T12:37:06;6.10;99.90
53045;DHT22;38930;52.766;6.884;2024-03-07T12:39:33;6.20;99.90
53045;DHT22;38930;52.766;6.884;2024-03-07T12:42:05;6.10;99.90
53045;DHT22;38930;52.766;6.884;2024-03-07T12:44:41;6.30;99.90
53045;DHT22;38930;52.766;6.884;2024-03-07T12:47:09;6.20;99.90
53045;DHT22;38930;52.766;6.884;2024-03-07T12:49:36;6.40;99.90
53045;DHT22;38930;52.766;6.884;2024-03-07T12:52:02;7.50;99.90
53045;DHT22;38930;52.766;6.884;2024-03-07T12:54:28;6.30;99.90
53045;DHT22;38930;52.766;6.884;2024-03-07T12:56:54;6.90;99.90
53045;DHT22;38930;52.766;6.884;2024-03-07T12:59:20;6.30;99.90
53045;DHT22;38930;52.766;6.884;2024-03-07T13:01:49;7.50;99.90
53045;DHT22;38930;52.766;6.884;2024-03-07T13:04:15;7.20;99.90
53045;DHT22;38930;52.766;6.884;2024-03-07T13:06:41;7.60;99.90
53045;DHT22;38930;52.766;6.884;2024-03-07T13:09:12;6.90;99.90
53045;DHT22;38930;52.766;6.884;2024-03-07T13:11:39;8.00;99.90
53045;DHT22;38930;52.766;6.884;2024-03-07T13:14:12;7.60;99.90
53045;DHT22;38930;52.766;6.884;2024-03-07T13:16:37;7.70;99.90
53045;DHT22;38930;52.766;6.884;2024-03-07T13:19:03;7.80;99.90
53045;DHT22;38930;52.766;6.884;2024-03-07T13:21:31;7.60;99.90
53045;DHT22;38930;52.766;6.884;2024-03-07T13:23:58;7.60;99.90
53045;DHT22;38930;52.766;6.884;2024-03-07T13:26:23;7.60;99.90
53045;DHT22;38930;52.766;6.884;2024-03-07T13:28:51;8.10;99.90
53045;DHT22;38930;52.766;6.884;2024-03-07T13:31:19;7.90;99.90
53045;DHT22;38930;52.766;6.884;2024-03-07T13:33:44;7.20;99.90
53045;DHT22;38930;52.766;6.884;2024-03-07T13:36:10;7.00;99.90
53045;DHT22;38930;52.766;6.884;2024-03-07T13:38:36;7.90;99.90
53045;DHT22;38930;52.766;6.884;2024-03-07T13:41:02;7.10;99.90
53045;DHT22;38930;52.766;6.884;2024-03-07T13:43:31;7.00;99.90
53045;DHT22;38930;52.766;6.884;2024-03-07T13:45:59;7.60;99.90
53045;DHT22;38930;52.766;6.884;2024-03-07T13:48:25;5.90;99.90
53045;DHT22;38930;52.766;6.884;2024-03-07T13:50:51;7.20;99.90
53045;DHT22;38930;52.766;6.884;2024-03-07T13:53:20;7.30;99.90
53045;DHT22;38930;52.766;6.884;2024-03-07T14:21:46;6.60;99.90
53045;DHT22;38930;52.766;6.884;2024-03-07T14:27:33;6.50;99.90
53045;DHT22;38930;52.766;6.884;2024-03-07T14:32:56;6.60;99.90
53045;DHT22;38930;52.766;6.884;2024-03-07T14:38:28;6.70;99.90
53045;DHT22;38930;52.766;6.884;2024-03-07T14:40:55;7.10;99.90
53045;DHT22;38930;52.766;6.884;2024-03-07T14:43:21;6.40;99.90
53045;DHT22;38930;52.766;6.884;2024-03-07T14:45:47;6.30;99.90
53045;DHT22;38930;52.766;6.884;2024-03-07T14:48:17;6.30;99.90
53045;DHT22;38930;52.766;6.884;2024-03-07T14:50:45;6.40;99.90
53045;DHT22;38930;52.766;6.884;2024-03-07T14:53:12;6.50;99.90
53045;DHT22;38930;52.766;6.884;2024-03-07T14:55:40;7.60;99.90
53045;DHT22;38930;52.766;6.884;2024-03-07T14:58:06;6.60;99.90
53045;DHT22;38930;52.766;6.884;2024-03-07T15:00:37;6.70;99.90
53045;DHT22;38930;52.766;6.884;2024-03-07T15:03:12;7.70;99.90
53045;DHT22;38930;52.766;6.884;2024-03-07T15:05:41;6.50;99.90
53045;DHT22;38930;52.766;6.884;2024-03-07T15:08:07;6.60;99.90
53045;DHT22;38930;52.766;6.884;2024-03-07T15:10:36;7.60;99.90
53045;DHT22;38930;52.766;6.884;2024-03-07T15:13:02;6.60;99.90
53045;DHT22;38930;52.766;6.884;2024-03-07T15:15:30;6.70;99.90
53045;DHT22;38930;52.766;6.884;2024-03-07T15:18:00;5.60;99.90
53045;DHT22;38930;52.766;6.884;2024-03-07T15:20:26;6.70;99.90
53045;DHT22;38930;52.766;6.884;2024-03-07T15:22:56;6.70;99.90
53045;DHT22;38930;52.766;6.884;2024-03-07T15:25:23;7.00;99.90
53045;DHT22;38930;52.766;6.884;2024-03-07T15:27:53;7.20;99.90
53045;DHT22;38930;52.766;6.884;2024-03-07T15:30:22;6.80;99.90
53045;DHT22;38930;52.766;6.884;2024-03-07T15:32:51;7.00;99.90
53045;DHT22;38930;52.766;6.884;2024-03-07T15:35:17;7.00;99.90
53045;DHT22;38930;52.766;6.884;2024-03-07T15:37:49;7.90;99.90
53045;DHT22;38930;52.766;6.884;2024-03-07T15:40:16;7.50;99.90
53045;DHT22;38930;52.766;6.884;2024-03-07T15:42:44;7.80;99.90
53045;DHT22;38930;52.766;6.884;2024-03-07T15:45:18;6.70;99.90
53045;DHT22;38930;52.766;6.884;2024-03-07T15:50:10;7.00;99.90
53045;DHT22;38930;52.766;6.884;2024-03-07T15:52:41;6.80;99.90
53045;DHT22;38930;52.766;6.884;2024-03-07T15:55:08;6.70;99.90
53045;DHT22;38930;52.766;6.884;2024-03-07T15:57:55;6.80;99.90
53045;DHT22;38930;52.766;6.884;2024-03-07T16:00:23;6.80;99.90
53045;DHT22;38930;52.766;6.884;2024-03-07T16:02:51;7.00;99.90
53045;DHT22;38930;52.766;6.884;2024-03-07T16:05:18;7.60;99.90
53045;DHT22;38930;52.766;6.884;2024-03-07T16:07:44;6.70;99.90
53045;DHT22;38930;52.766;6.884;2024-03-07T16:10:09;6.70;99.90
53045;DHT22;38930;52.766;6.884;2024-03-07T16:12:35;6.70;99.90
53045;DHT22;38930;52.766;6.884;2024-03-07T16:15:01;5.10;99.90
53045;DHT22;38930;52.766;6.884;2024-03-07T16:17:27;6.70;99.90
53045;DHT22;38930;52.766;6.884;2024-03-07T16:19:52;7.70;99.90
53045;DHT22;38930;52.766;6.884;2024-03-07T16:22:18;7.40;99.90
53045;DHT22;38930;52.766;6.884;2024-03-07T16:24:44;7.70;99.90
53045;DHT22;38930;52.766;6.884;2024-03-07T16:27:10;6.60;99.90
53045;DHT22;38930;52.766;6.884;2024-03-07T16:29:35;7.50;99.90